Pulaski, Georgia
Current Conditions -  °F | °C
As of 6:55 AM on Sunday 23 Nov 2014 (Local Time) from KCWV Reporting Station
Heavy Rain Heavy Rain  
Wind Chill: 61°   Ceiling: 600
Heat Index: 61°   Visibility: 3mi
Dew Point: 61°   Wind: 10mph
Humidity: 100%   Direction: 80°E
Pressure: 30.05"   Gusts: 17mph
Location:  32.39°N, 81.96°W
Report Text: KCWV 231155Z AUTO 08009G15KT 3SM +RA OVC006 16/16 A3005 RMK AO2
Loading
Personal Weather Stations






























Interactive Weather Map New forecast layout! Learn more

10-Day Weather Forecast

Advertisements
Track Severe Weather on mobile